createdAt,value
2023-03-19T00:01:27.106Z,100133.66
2023-03-19T00:03:56.460Z,100121.31
2023-03-19T00:06:25.951Z,100120.25
2023-03-19T00:08:53.872Z,100113.94
2023-03-19T00:11:25.123Z,100118.28
2023-03-19T00:13:53.454Z,100118.19
2023-03-19T00:16:22.182Z,100113.50
2023-03-19T00:18:50.454Z,100102.00
2023-03-19T00:21:18.645Z,100110.25
2023-03-19T00:23:46.792Z,100122.56
2023-03-19T00:26:15.867Z,100122.50
2023-03-19T00:28:46.488Z,100127.94
2023-03-19T00:31:17.698Z,100126.38
2023-03-19T00:33:46.824Z,100126.81
2023-03-19T00:36:16.761Z,100132.19
2023-03-19T00:38:47.959Z,100127.84
2023-03-19T00:41:18.873Z,100122.16
2023-03-19T00:43:54.766Z,100130.72
2023-03-19T00:46:24.983Z,100114.03
2023-03-19T00:48:55.918Z,100122.84
2023-03-19T00:51:25.829Z,100109.22
2023-03-19T00:53:54.940Z,100137.88
2023-03-19T00:56:23.243Z,100141.59
2023-03-19T00:58:52.126Z,100144.16
2023-03-19T01:01:20.734Z,100142.53
2023-03-19T01:03:52.558Z,100141.59
2023-03-19T01:06:21.254Z,100145.13
2023-03-19T01:08:51.415Z,100143.50
2023-03-19T01:11:21.513Z,100145.47
2023-03-19T01:13:49.812Z,100158.09
2023-03-19T01:16:21.052Z,100153.91
2023-03-19T01:18:49.830Z,100148.75
2023-03-19T01:21:19.527Z,100151.34
2023-03-19T01:23:51.791Z,100150.63
2023-03-19T01:26:20.604Z,100149.25
2023-03-19T01:28:53.578Z,100160.31
2023-03-19T01:31:24.156Z,100161.28
2023-03-19T01:34:28.174Z,100166.88
2023-03-19T01:37:03.324Z,100163.41
2023-03-19T01:39:34.468Z,100165.16
2023-03-19T01:42:09.129Z,100163.41
2023-03-19T01:44:42.129Z,100165.31
2023-03-19T01:47:38.637Z,100161.22
2023-03-19T01:50:41.281Z,100177.84
2023-03-19T01:53:24.233Z,100171.63
2023-03-19T01:56:18.017Z,100178.69
2023-03-19T01:59:34.662Z,100171.94
2023-03-19T02:02:35.500Z,100185.16
2023-03-19T02:05:26.018Z,100179.25
2023-03-19T02:08:04.005Z,100188.13
2023-03-19T02:10:35.765Z,100172.41
2023-03-19T02:13:09.036Z,100179.31
2023-03-19T02:15:37.619Z,100195.38
2023-03-19T02:18:08.005Z,100183.81
2023-03-19T02:21:12.595Z,100184.41
2023-03-19T02:24:13.033Z,100180.81
2023-03-19T02:26:52.271Z,100187.03
2023-03-19T02:29:22.575Z,100177.94
2023-03-19T02:31:52.014Z,100184.06
2023-03-19T02:34:23.193Z,100182.69
2023-03-19T02:37:01.461Z,100182.50
2023-03-19T02:40:10.712Z,100171.78
2023-03-19T02:42:39.332Z,100179.81
2023-03-19T02:45:12.496Z,100173.38
2023-03-19T02:47:41.861Z,100176.13
2023-03-19T02:50:13.283Z,100178.91
2023-03-19T02:52:41.586Z,100177.25
2023-03-19T02:55:11.615Z,100185.97
2023-03-19T02:57:40.102Z,100174.72
2023-03-19T03:00:11.022Z,100173.81
2023-03-19T03:02:42.225Z,100174.97
2023-03-19T03:05:13.893Z,100176.53
2023-03-19T03:07:44.187Z,100177.59
2023-03-19T03:10:14.772Z,100174.19
2023-03-19T03:12:43.052Z,100183.00
2023-03-19T03:15:14.811Z,100187.50
2023-03-19T03:17:45.893Z,100173.81
2023-03-19T03:20:18.039Z,100190.50
2023-03-19T03:22:46.974Z,100189.88
2023-03-19T03:25:16.957Z,100184.34
2023-03-19T03:27:45.982Z,100193.28
2023-03-19T03:30:16.282Z,100195.13
2023-03-19T03:32:46.159Z,100189.97
2023-03-19T03:35:21.864Z,100177.16
2023-03-19T03:37:54.973Z,100192.69
2023-03-19T03:40:22.762Z,100194.34
2023-03-19T03:42:52.277Z,100204.91
2023-03-19T03:45:20.604Z,100183.81
2023-03-19T03:47:49.680Z,100208.28
2023-03-19T03:50:19.217Z,100210.09
2023-03-19T03:52:49.604Z,100199.56
2023-03-19T03:55:18.573Z,100209.16
2023-03-19T03:57:51.215Z,100199.56
2023-03-19T04:00:40.582Z,100206.72
2023-03-19T04:03:28.813Z,100220.09
2023-03-19T04:05:59.769Z,100199.84
2023-03-19T04:08:28.278Z,100212.78
2023-03-19T04:10:58.342Z,100218.13
2023-03-19T04:13:27.963Z,100220.91
2023-03-19T04:15:56.542Z,100214.59
2023-03-19T04:18:26.291Z,100220.66
2023-03-19T04:20:54.381Z,100225.06
2023-03-19T04:23:22.713Z,100208.03
2023-03-19T04:25:52.248Z,100217.97
2023-03-19T04:28:22.033Z,100205.72
2023-03-19T04:30:51.176Z,100212.78
2023-03-19T04:33:20.173Z,100218.94
2023-03-19T04:35:49.250Z,100211.06
2023-03-19T04:38:17.366Z,100220.56
2023-03-19T04:40:46.920Z,100225.81
2023-03-19T04:43:15.892Z,100229.22
2023-03-19T04:45:45.079Z,100237.25
2023-03-19T04:48:13.865Z,100231.97
2023-03-19T04:50:44.281Z,100226.00
2023-03-19T04:53:14.064Z,100234.56
2023-03-19T04:55:43.336Z,100237.25
2023-03-19T04:58:18.420Z,100225.75
2023-03-19T05:00:52.582Z,100229.22
2023-03-19T05:03:27.539Z,100237.84
2023-03-19T05:05:56.762Z,100244.00
2023-03-19T05:08:25.880Z,100237.72
2023-03-19T05:10:54.054Z,100230.53
2023-03-19T05:13:23.610Z,100238.47
2023-03-19T05:15:55.904Z,100236.66
2023-03-19T05:18:26.066Z,100241.84
2023-03-19T05:20:55.379Z,100242.00
2023-03-19T05:23:24.432Z,100249.78
2023-03-19T05:26:10.026Z,100252.56
2023-03-19T05:28:58.298Z,100248.22
2023-03-19T05:31:35.711Z,100245.41
2023-03-19T05:34:04.395Z,100244.44
2023-03-19T05:36:34.706Z,100249.75
2023-03-19T05:39:18.037Z,100253.19
2023-03-19T05:41:47.866Z,100251.38
2023-03-19T05:44:21.388Z,100248.78
2023-03-19T05:47:12.404Z,100247.78
2023-03-19T05:49:46.691Z,100249.91
2023-03-19T05:52:15.428Z,100254.91
2023-03-19T05:54:49.347Z,100268.03
2023-03-19T05:57:37.897Z,100267.19
2023-03-19T06:00:13.402Z,100262.69
2023-03-19T06:02:43.878Z,100260.97
2023-03-19T06:05:44.026Z,100277.97
2023-03-19T06:08:30.074Z,100282.72
2023-03-19T06:11:04.729Z,100274.59
2023-03-19T06:13:34.185Z,100280.56
2023-03-19T06:16:09.099Z,100285.84
2023-03-19T06:18:45.966Z,100283.97
2023-03-19T06:21:17.513Z,100282.16
2023-03-19T06:23:47.112Z,100292.88
2023-03-19T06:26:19.247Z,100284.13
2023-03-19T06:28:55.085Z,100285.78
2023-03-19T06:31:24.555Z,100283.78
2023-03-19T06:33:56.414Z,100280.47
2023-03-19T06:36:30.175Z,100292.72
2023-03-19T06:38:59.638Z,100288.38
2023-03-19T06:41:27.499Z,100282.16
2023-03-19T06:44:02.755Z,100279.63
2023-03-19T06:46:31.326Z,100291.91
2023-03-19T06:48:59.138Z,100294.34
2023-03-19T06:51:30.949Z,100288.13
2023-03-19T06:53:59.104Z,100296.88
2023-03-19T06:56:27.640Z,100295.81
2023-03-19T06:58:57.219Z,100289.50
2023-03-19T07:01:27.254Z,100290.06
2023-03-19T07:03:57.769Z,100294.19
2023-03-19T07:06:25.925Z,100303.72
2023-03-19T07:08:54.720Z,100299.81
2023-03-19T07:11:23.038Z,100311.94
2023-03-19T07:13:51.817Z,100308.13
2023-03-19T07:16:21.227Z,100315.06
2023-03-19T07:18:49.369Z,100323.69
2023-03-19T07:21:18.226Z,100327.25
2023-03-19T07:23:47.933Z,100327.44
2023-03-19T07:26:19.471Z,100308.06
2023-03-19T07:28:48.900Z,100318.59
2023-03-19T07:31:19.254Z,100330.19
2023-03-19T07:33:47.785Z,100331.31
2023-03-19T07:36:17.648Z,100336.59
2023-03-19T07:38:47.862Z,100329.56
2023-03-19T07:41:17.010Z,100317.13
2023-03-19T07:43:44.849Z,100321.22
2023-03-19T07:46:13.746Z,100329.84
2023-03-19T07:48:42.162Z,100323.63
2023-03-19T07:51:10.534Z,100333.19
2023-03-19T07:53:38.778Z,100323.53
2023-03-19T07:56:09.037Z,100336.28
2023-03-19T07:58:36.955Z,100335.50
2023-03-19T08:01:05.747Z,100335.94
2023-03-19T08:03:35.254Z,100339.25
2023-03-19T08:06:04.413Z,100333.34
2023-03-19T08:08:34.905Z,100329.25
2023-03-19T08:11:04.060Z,100329.69
2023-03-19T08:13:32.437Z,100341.63
2023-03-19T08:16:01.316Z,100320.16
2023-03-19T08:18:31.086Z,100326.09
2023-03-19T08:20:59.268Z,100335.19
2023-03-19T08:23:27.318Z,100337.50
2023-03-19T08:25:57.249Z,100333.69
2023-03-19T08:28:26.024Z,100339.44
2023-03-19T08:30:55.996Z,100339.03
2023-03-19T08:33:25.138Z,100329.94
2023-03-19T08:35:53.768Z,100342.13
2023-03-19T08:38:23.165Z,100326.66
2023-03-19T08:40:51.269Z,100332.53
2023-03-19T08:43:19.691Z,100329.00
2023-03-19T08:45:47.768Z,100327.06
2023-03-19T08:48:16.025Z,100324.50
2023-03-19T08:50:44.655Z,100333.41
2023-03-19T08:53:14.856Z,100337.63
2023-03-19T08:55:44.270Z,100338.56
2023-03-19T08:58:12.560Z,100346.34
2023-03-19T09:00:42.182Z,100339.25
2023-03-19T09:03:10.698Z,100348.59
2023-03-19T09:05:38.841Z,100344.53
2023-03-19T09:08:07.985Z,100345.81
2023-03-19T09:10:36.800Z,100335.06
2023-03-19T09:13:05.935Z,100342.25
2023-03-19T09:15:35.905Z,100351.47
2023-03-19T09:18:06.411Z,100346.38
2023-03-19T09:20:34.898Z,100344.97
2023-03-19T09:23:06.754Z,100347.34
2023-03-19T09:25:36.634Z,100349.09
2023-03-19T09:28:07.009Z,100353.59
2023-03-19T09:30:36.391Z,100353.06
2023-03-19T09:33:07.151Z,100348.53
2023-03-19T09:35:36.034Z,100341.13
2023-03-19T09:38:09.592Z,100350.75
2023-03-19T09:40:45.459Z,100344.69
2023-03-19T09:43:41.289Z,100350.97
2023-03-19T09:46:24.030Z,100340.03
2023-03-19T09:49:16.771Z,100353.72
2023-03-19T09:52:04.861Z,100352.88
2023-03-19T09:54:45.184Z,100342.16
2023-03-19T09:57:17.949Z,100360.09
2023-03-19T09:59:55.266Z,100345.53
2023-03-19T10:02:36.602Z,100350.28
2023-03-19T10:05:36.785Z,100343.25
2023-03-19T10:08:33.737Z,100348.22
2023-03-19T10:12:08.453Z,100343.38
2023-03-19T10:15:15.495Z,100336.78
2023-03-19T10:18:16.262Z,100344.78
2023-03-19T10:21:02.068Z,100338.44
2023-03-19T10:23:43.081Z,100327.09
2023-03-19T10:26:22.800Z,100334.00
2023-03-19T10:29:04.836Z,100332.66
2023-03-19T10:32:10.946Z,100316.16
2023-03-19T10:34:51.377Z,100317.88
2023-03-19T10:37:27.124Z,100300.22
2023-03-19T10:40:14.784Z,100318.66
2023-03-19T10:43:17.916Z,100315.41
2023-03-19T10:45:46.869Z,100308.06
2023-03-19T10:48:19.653Z,100310.66
2023-03-19T10:51:06.716Z,100312.50
2023-03-19T10:53:39.729Z,100317.97
2023-03-19T10:56:34.285Z,100306.28
2023-03-19T10:59:07.939Z,100313.91
2023-03-19T11:01:42.517Z,100305.25
2023-03-19T11:04:26.893Z,100310.59
2023-03-19T11:07:15.322Z,100307.25
2023-03-19T11:09:51.850Z,100304.94
2023-03-19T11:12:32.372Z,100308.81
2023-03-19T11:15:07.412Z,100303.06
2023-03-19T11:17:56.214Z,100298.38
2023-03-19T11:20:35.436Z,100303.06
2023-03-19T11:23:17.596Z,100308.25
2023-03-19T11:25:56.051Z,100300.13
2023-03-19T11:28:29.744Z,100302.72
2023-03-19T11:31:20.563Z,100311.97
2023-03-19T11:34:16.372Z,100314.03
2023-03-19T11:36:53.254Z,100312.88
2023-03-19T11:40:12.595Z,100309.53
2023-03-19T11:43:02.372Z,100320.06
2023-03-19T11:45:54.448Z,100310.00
2023-03-19T11:49:19.849Z,100313.81
2023-03-19T11:52:09.197Z,100321.56
2023-03-19T11:54:57.381Z,100315.06
2023-03-19T11:58:22.660Z,100323.50
2023-03-19T12:01:02.055Z,100320.81
2023-03-19T12:04:05.468Z,100315.19
2023-03-19T12:06:49.682Z,100314.59
2023-03-19T12:12:42.865Z,100298.44
2023-03-19T12:15:33.246Z,100296.00
2023-03-19T12:18:34.329Z,100307.78
2023-03-19T12:21:04.804Z,100299.47
2023-03-19T12:24:18.221Z,100303.38
2023-03-19T12:26:53.111Z,100283.81
2023-03-19T12:30:02.276Z,100293.84
2023-03-19T12:32:58.760Z,100289.69
2023-03-19T12:35:39.659Z,100305.53
2023-03-19T12:38:31.821Z,100296.16
2023-03-19T12:41:11.814Z,100299.06
2023-03-19T12:44:00.337Z,100304.38
2023-03-19T12:46:44.539Z,100290.53
2023-03-19T12:49:39.263Z,100297.66
2023-03-19T12:52:38.167Z,100298.63
2023-03-19T12:55:25.995Z,100295.09
2023-03-19T12:58:15.367Z,100303.75
2023-03-19T13:01:09.112Z,100304.94
2023-03-19T13:04:32.409Z,100308.44
2023-03-19T13:07:36.724Z,100304.34
2023-03-19T13:10:21.132Z,100306.00
2023-03-19T13:12:52.878Z,100308.19
2023-03-19T13:15:40.658Z,100323.06
2023-03-19T13:18:44.194Z,100315.31
2023-03-19T13:21:31.151Z,100311.22
2023-03-19T13:24:26.066Z,100319.78
2023-03-19T13:26:56.673Z,100309.22
2023-03-19T13:29:29.376Z,100308.28
2023-03-19T13:32:45.423Z,100308.28
2023-03-19T13:35:44.943Z,100315.50
2023-03-19T13:38:24.585Z,100314.41
2023-03-19T13:40:58.018Z,100317.31
2023-03-19T13:43:29.918Z,100316.69
2023-03-19T13:46:17.727Z,100318.53
2023-03-19T13:48:50.401Z,100326.09
2023-03-19T13:51:19.750Z,100327.81
2023-03-19T13:54:01.287Z,100318.75
2023-03-19T13:56:30.859Z,100321.34
2023-03-19T13:59:34.995Z,100317.81
2023-03-19T14:02:27.465Z,100314.66
2023-03-19T14:05:17.230Z,100313.28
2023-03-19T14:07:53.591Z,100309.59
2023-03-19T14:10:29.390Z,100306.13
2023-03-19T14:13:17.606Z,100304.13
2023-03-19T14:15:51.723Z,100305.06
2023-03-19T14:18:25.398Z,100304.31
2023-03-19T14:21:08.878Z,100306.56
2023-03-19T14:23:53.230Z,100307.97
2023-03-19T14:26:27.663Z,100307.88
2023-03-19T14:29:07.135Z,100304.19
2023-03-19T14:31:51.744Z,100308.63
2023-03-19T14:34:46.933Z,100313.34
2023-03-19T14:37:38.526Z,100306.91
2023-03-19T14:40:14.695Z,100310.44
2023-03-19T14:43:05.824Z,100309.38
2023-03-19T14:46:05.129Z,100312.59
2023-03-19T14:48:51.808Z,100306.69
2023-03-19T14:51:44.436Z,100314.66
2023-03-19T14:54:49.310Z,100315.81
2023-03-19T14:57:28.583Z,100307.09
2023-03-19T15:00:00.303Z,100302.00
2023-03-19T15:02:39.007Z,100298.13
2023-03-19T15:05:26.314Z,100303.63
2023-03-19T15:08:07.154Z,100303.53
2023-03-19T15:10:55.129Z,100305.25
2023-03-19T15:13:51.887Z,100303.22
2023-03-19T15:16:59.818Z,100306.56
2023-03-19T15:19:32.441Z,100301.72
2023-03-19T15:22:14.013Z,100306.22
2023-03-19T15:24:43.509Z,100297.38
2023-03-19T15:27:32.031Z,100304.31
2023-03-19T15:30:12.668Z,100301.72
2023-03-19T15:32:54.301Z,100309.06
2023-03-19T15:35:36.154Z,100313.81
2023-03-19T15:38:13.114Z,100307.44
2023-03-19T15:40:42.782Z,100310.13
2023-03-19T15:43:15.175Z,100316.13
2023-03-19T15:45:49.201Z,100314.22
2023-03-19T15:48:28.273Z,100311.09
2023-03-19T15:51:00.760Z,100314.34
2023-03-19T15:53:32.797Z,100310.34
2023-03-19T15:56:05.083Z,100307.66
2023-03-19T15:58:41.418Z,100310.13
2023-03-19T16:01:33.420Z,100307.66
2023-03-19T16:04:21.227Z,100314.13
2023-03-19T16:07:33.037Z,100309.81
2023-03-19T16:10:28.948Z,100314.34
2023-03-19T16:13:39.323Z,100327.03
2023-03-19T16:16:31.309Z,100323.81
2023-03-19T16:19:02.892Z,100328.47
2023-03-19T16:21:36.793Z,100330.50
2023-03-19T16:24:27.837Z,100331.78
2023-03-19T16:27:02.018Z,100353.25
2023-03-19T16:29:44.006Z,100351.69
2023-03-19T16:32:25.164Z,100355.88
2023-03-19T16:35:04.106Z,100349.09
2023-03-19T16:37:44.990Z,100365.66
2023-03-19T16:40:13.599Z,100370.78
2023-03-19T16:42:51.207Z,100378.19
2023-03-19T16:45:32.454Z,100374.94
2023-03-19T16:48:06.499Z,100380.81
2023-03-19T16:50:40.686Z,100386.88
2023-03-19T16:53:33.083Z,100386.00
2023-03-19T16:56:04.331Z,100389.09
2023-03-19T16:58:45.738Z,100396.09
2023-03-19T17:01:24.901Z,100402.56
2023-03-19T17:03:54.069Z,100402.00
2023-03-19T17:06:23.072Z,100412.53
2023-03-19T17:08:53.655Z,100426.09
2023-03-19T17:11:39.963Z,100423.88
2023-03-19T17:14:22.931Z,100436.00
2023-03-19T17:16:55.881Z,100437.44
2023-03-19T17:19:36.326Z,100437.94
2023-03-19T17:22:05.256Z,100429.91
2023-03-19T17:24:35.048Z,100455.06
2023-03-19T17:27:05.132Z,100453.72
2023-03-19T17:29:35.708Z,100453.44
2023-03-19T17:32:19.139Z,100444.84
2023-03-19T17:34:49.599Z,100446.78
2023-03-19T17:37:19.874Z,100445.50
2023-03-19T17:39:49.865Z,100450.88
2023-03-19T17:42:26.178Z,100441.97
2023-03-19T17:44:59.722Z,100443.88
2023-03-19T17:47:31.844Z,100444.06
2023-03-19T17:50:01.144Z,100432.25
2023-03-19T17:52:30.844Z,100452.66
2023-03-19T17:55:00.181Z,100452.88
2023-03-19T17:57:29.828Z,100460.13
2023-03-19T18:00:00.804Z,100451.38
2023-03-19T18:02:32.497Z,100450.78
2023-03-19T18:05:01.510Z,100461.38
2023-03-19T18:07:29.572Z,100454.91
2023-03-19T18:09:58.743Z,100468.13
2023-03-19T18:12:26.976Z,100461.19
2023-03-19T18:15:00.629Z,100475.78
2023-03-19T18:17:29.709Z,100471.66
2023-03-19T18:19:59.454Z,100469.25
2023-03-19T18:22:29.106Z,100476.81
2023-03-19T18:25:05.645Z,100477.16
2023-03-19T18:27:35.950Z,100472.47
2023-03-19T18:30:08.771Z,100486.69
2023-03-19T18:32:42.391Z,100494.03
2023-03-19T18:35:20.591Z,100489.03
2023-03-19T18:37:53.389Z,100497.59
2023-03-19T18:40:37.279Z,100498.94
2023-03-19T18:43:07.111Z,100485.59
2023-03-19T18:45:36.536Z,100492.72
2023-03-19T18:48:21.719Z,100496.16
2023-03-19T18:50:58.052Z,100499.28
2023-03-19T18:53:27.307Z,100502.81
2023-03-19T18:55:55.417Z,100492.66
2023-03-19T18:58:29.784Z,100513.06
2023-03-19T19:01:02.957Z,100502.69
2023-03-19T19:03:37.129Z,100501.03
2023-03-19T19:06:08.137Z,100503.06
2023-03-19T19:08:38.870Z,100507.63
2023-03-19T19:11:13.631Z,100498.66
2023-03-19T19:13:55.417Z,100509.53
2023-03-19T19:16:40.470Z,100504.34
2023-03-19T19:19:22.142Z,100509.13
2023-03-19T19:21:52.298Z,100513.88
2023-03-19T19:24:25.136Z,100508.69
2023-03-19T19:26:58.503Z,100499.47
2023-03-19T19:29:30.089Z,100508.44
2023-03-19T19:32:01.118Z,100528.38
2023-03-19T19:34:31.761Z,100518.22
2023-03-19T19:37:00.996Z,100524.19
2023-03-19T19:39:30.504Z,100534.50
2023-03-19T19:41:59.534Z,100531.97
2023-03-19T19:44:28.739Z,100549.13
2023-03-19T19:46:57.912Z,100554.94
2023-03-19T19:49:27.569Z,100559.00
2023-03-19T19:51:57.084Z,100564.84
2023-03-19T19:54:27.286Z,100547.28
2023-03-19T19:57:01.710Z,100569.63
2023-03-19T19:59:31.328Z,100568.72
2023-03-19T20:02:00.120Z,100564.41
2023-03-19T20:04:30.525Z,100562.50
2023-03-19T20:06:59.573Z,100574.97
2023-03-19T20:09:28.581Z,100573.94
2023-03-19T20:11:57.492Z,100570.41
2023-03-19T20:14:27.283Z,100573.00
2023-03-19T20:16:56.674Z,100580.03
2023-03-19T20:19:31.784Z,100581.84
2023-03-19T20:22:00.266Z,100583.72
2023-03-19T20:24:30.959Z,100599.63
2023-03-19T20:27:02.515Z,100593.63
2023-03-19T20:29:37.838Z,100600.78
2023-03-19T20:32:36.341Z,100599.06
2023-03-19T20:35:16.761Z,100595.69
2023-03-19T20:37:46.698Z,100603.06
2023-03-19T20:40:18.529Z,100597.88
2023-03-19T20:42:52.286Z,100584.84
2023-03-19T20:45:28.565Z,100600.63
2023-03-19T20:47:56.982Z,100602.63
2023-03-19T20:50:33.177Z,100613.31
2023-03-19T20:53:03.993Z,100624.09
2023-03-19T20:55:38.446Z,100621.44
2023-03-19T20:58:34.993Z,100620.66
2023-03-19T21:01:05.429Z,100622.78
2023-03-19T21:03:35.051Z,100632.50
2023-03-19T21:06:07.044Z,100638.72
2023-03-19T21:08:48.371Z,100642.34
2023-03-19T21:11:19.837Z,100646.09
2023-03-19T21:13:55.337Z,100644.78
2023-03-19T21:16:27.831Z,100658.31
2023-03-19T21:18:56.641Z,100659.19
2023-03-19T21:21:36.317Z,100656.63
2023-03-19T21:24:17.833Z,100664.81
2023-03-19T21:26:48.171Z,100663.41
2023-03-19T21:29:30.333Z,100661.03
2023-03-19T21:31:58.679Z,100674.56
2023-03-19T21:34:29.241Z,100673.69
2023-03-19T21:37:01.101Z,100680.00
2023-03-19T21:39:31.461Z,100681.94
2023-03-19T21:42:00.001Z,100683.81
2023-03-19T21:44:33.131Z,100682.31
2023-03-19T21:47:39.387Z,100696.34
2023-03-19T21:50:21.806Z,100684.88
2023-03-19T21:53:01.912Z,100675.25
2023-03-19T21:55:39.557Z,100685.88
2023-03-19T21:58:17.158Z,100691.91
2023-03-19T22:01:16.129Z,100695.50
2023-03-19T22:03:46.193Z,100699.78
2023-03-19T22:06:19.262Z,100706.75
2023-03-19T22:08:54.978Z,100698.59
2023-03-19T22:11:33.369Z,100681.75
2023-03-19T22:14:26.656Z,100701.94
2023-03-19T22:16:58.394Z,100697.66
2023-03-19T22:19:26.977Z,100695.09
2023-03-19T22:21:57.178Z,100703.53
2023-03-19T22:24:25.860Z,100701.59
2023-03-19T22:26:58.113Z,100702.34
2023-03-19T22:29:28.882Z,100705.81
2023-03-19T22:32:02.410Z,100695.59
2023-03-19T22:34:31.877Z,100699.00
2023-03-19T22:37:00.470Z,100704.09
2023-03-19T22:39:28.756Z,100702.28
2023-03-19T22:41:57.257Z,100713.72
2023-03-19T22:44:33.728Z,100702.00
2023-03-19T22:47:02.585Z,100705.50
2023-03-19T22:49:34.228Z,100701.88
2023-03-19T22:52:03.196Z,100705.38
2023-03-19T22:54:31.121Z,100707.91
2023-03-19T22:57:01.449Z,100712.28
2023-03-19T22:59:31.148Z,100712.19
2023-03-19T23:02:01.609Z,100715.72
2023-03-19T23:04:35.224Z,100716.53
2023-03-19T23:07:03.605Z,100710.31
2023-03-19T23:09:36.339Z,100708.31
2023-03-19T23:12:05.675Z,100704.72
2023-03-19T23:14:34.017Z,100702.25
2023-03-19T23:17:16.747Z,100699.41
2023-03-19T23:19:45.399Z,100696.03
2023-03-19T23:22:17.178Z,100690.69
2023-03-19T23:24:46.437Z,100703.16
2023-03-19T23:27:25.007Z,100691.66
2023-03-19T23:29:54.200Z,100698.03
2023-03-19T23:32:23.687Z,100701.69
2023-03-19T23:35:01.046Z,100694.63
2023-03-19T23:37:31.106Z,100696.47
2023-03-19T23:39:59.416Z,100685.84
2023-03-19T23:42:30.603Z,100690.44
2023-03-19T23:45:05.407Z,100682.59
2023-03-19T23:47:37.202Z,100697.69
2023-03-19T23:50:12.058Z,100685.53
2023-03-19T23:52:40.425Z,100690.72
2023-03-19T23:55:09.772Z,100696.00
2023-03-19T23:57:43.274Z,100700.56
